sensor_id;sensor_type;location;lat;lon;timestamp;temperature;humidity
26224;DHT22;14820;48.682;8.890;2023-05-19T00:01:11;10.40;99.90
26224;DHT22;14820;48.682;8.890;2023-05-19T00:03:52;10.40;99.90
26224;DHT22;14820;48.682;8.890;2023-05-19T00:06:24;10.40;99.90
26224;DHT22;14820;48.682;8.890;2023-05-19T00:08:59;10.40;99.90
26224;DHT22;14820;48.682;8.890;2023-05-19T00:11:26;10.40;99.90
26224;DHT22;14820;48.682;8.890;2023-05-19T00:13:54;10.40;99.90
26224;DHT22;14820;48.682;8.890;2023-05-19T00:16:21;10.40;99.90
26224;DHT22;14820;48.682;8.890;2023-05-19T00:18:47;10.30;99.90
26224;DHT22;14820;48.682;8.890;2023-05-19T00:21:13;10.40;99.90
26224;DHT22;14820;48.682;8.890;2023-05-19T00:23:39;10.40;99.90
26224;DHT22;14820;48.682;8.890;2023-05-19T00:26:05;10.30;99.90
26224;DHT22;14820;48.682;8.890;2023-05-19T00:28:30;10.30;99.90
26224;DHT22;14820;48.682;8.890;2023-05-19T00:30:56;10.30;99.90
26224;DHT22;14820;48.682;8.890;2023-05-19T00:33:22;10.30;99.90
26224;DHT22;14820;48.682;8.890;2023-05-19T00:35:47;10.30;99.90
26224;DHT22;14820;48.682;8.890;2023-05-19T00:38:13;10.30;99.90
26224;DHT22;14820;48.682;8.890;2023-05-19T00:40:39;10.30;99.90
26224;DHT22;14820;48.682;8.890;2023-05-19T00:43:04;10.30;99.90
26224;DHT22;14820;48.682;8.890;2023-05-19T00:45:30;10.30;99.90
26224;DHT22;14820;48.682;8.890;2023-05-19T00:47:56;10.30;99.90
26224;DHT22;14820;48.682;8.890;2023-05-19T00:50:22;10.30;99.90
26224;DHT22;14820;48.682;8.890;2023-05-19T00:52:49;10.20;99.90
26224;DHT22;14820;48.682;8.890;2023-05-19T00:55:15;10.20;99.90
26224;DHT22;14820;48.682;8.890;2023-05-19T00:57:42;10.30;99.90
26224;DHT22;14820;48.682;8.890;2023-05-19T01:00:08;10.20;99.90
26224;DHT22;14820;48.682;8.890;2023-05-19T01:02:35;10.20;99.90
26224;DHT22;14820;48.682;8.890;2023-05-19T01:05:05;10.20;99.90
26224;DHT22;14820;48.682;8.890;2023-05-19T01:07:32;10.20;99.90
26224;DHT22;14820;48.682;8.890;2023-05-19T01:09:57;10.20;99.90
26224;DHT22;14820;48.682;8.890;2023-05-19T01:12:24;10.20;99.90
26224;DHT22;14820;48.682;8.890;2023-05-19T01:14:50;10.10;99.90
26224;DHT22;14820;48.682;8.890;2023-05-19T01:17:32;10.10;99.90
26224;DHT22;14820;48.682;8.890;2023-05-19T01:23:22;10.10;99.90
26224;DHT22;14820;48.682;8.890;2023-05-19T01:31:41;10.00;99.90
26224;DHT22;14820;48.682;8.890;2023-05-19T01:34:11;10.00;99.90
26224;DHT22;14820;48.682;8.890;2023-05-19T01:36:37;10.00;99.90
26224;DHT22;14820;48.682;8.890;2023-05-19T01:39:05;10.00;99.90
26224;DHT22;14820;48.682;8.890;2023-05-19T01:41:32;10.00;99.90
26224;DHT22;14820;48.682;8.890;2023-05-19T01:43:59;10.00;99.90
26224;DHT22;14820;48.682;8.890;2023-05-19T01:46:25;10.00;99.90
26224;DHT22;14820;48.682;8.890;2023-05-19T01:48:51;10.00;99.90
26224;DHT22;14820;48.682;8.890;2023-05-19T01:51:17;9.90;99.90
26224;DHT22;14820;48.682;8.890;2023-05-19T01:53:43;9.90;99.90
26224;DHT22;14820;48.682;8.890;2023-05-19T01:56:09;9.90;99.90
26224;DHT22;14820;48.682;8.890;2023-05-19T02:01:15;9.90;99.90
26224;DHT22;14820;48.682;8.890;2023-05-19T02:06:31;9.90;99.90
26224;DHT22;14820;48.682;8.890;2023-05-19T02:11:41;9.90;99.90
26224;DHT22;14820;48.682;8.890;2023-05-19T02:14:18;10.00;99.90
26224;DHT22;14820;48.682;8.890;2023-05-19T02:16:46;9.90;99.90
26224;DHT22;14820;48.682;8.890;2023-05-19T02:19:39;9.90;99.90
26224;DHT22;14820;48.682;8.890;2023-05-19T02:22:05;9.90;99.90
26224;DHT22;14820;48.682;8.890;2023-05-19T02:24:31;9.80;99.90
26224;DHT22;14820;48.682;8.890;2023-05-19T02:26:56;9.90;99.90
26224;DHT22;14820;48.682;8.890;2023-05-19T02:29:22;9.80;99.90
26224;DHT22;14820;48.682;8.890;2023-05-19T02:31:48;9.90;99.90
26224;DHT22;14820;48.682;8.890;2023-05-19T02:34:13;9.80;99.90
26224;DHT22;14820;48.682;8.890;2023-05-19T02:36:40;9.80;99.90
26224;DHT22;14820;48.682;8.890;2023-05-19T02:39:08;9.80;99.90
26224;DHT22;14820;48.682;8.890;2023-05-19T02:41:34;9.80;99.90
26224;DHT22;14820;48.682;8.890;2023-05-19T02:43:59;9.80;99.90
26224;DHT22;14820;48.682;8.890;2023-05-19T02:46:25;9.80;99.90
26224;DHT22;14820;48.682;8.890;2023-05-19T02:48:52;9.80;99.90
26224;DHT22;14820;48.682;8.890;2023-05-19T02:51:17;9.80;99.90
26224;DHT22;14820;48.682;8.890;2023-05-19T02:53:43;9.80;99.90
26224;DHT22;14820;48.682;8.890;2023-05-19T02:56:09;9.80;99.90
26224;DHT22;14820;48.682;8.890;2023-05-19T02:58:34;9.70;99.90
26224;DHT22;14820;48.682;8.890;2023-05-19T03:01:00;9.80;99.90
26224;DHT22;14820;48.682;8.890;2023-05-19T03:03:26;9.70;99.90
26224;DHT22;14820;48.682;8.890;2023-05-19T03:05:53;9.70;99.90
26224;DHT22;14820;48.682;8.890;2023-05-19T03:08:19;9.70;99.90
26224;DHT22;14820;48.682;8.890;2023-05-19T03:10:45;9.70;99.90
26224;DHT22;14820;48.682;8.890;2023-05-19T03:13:11;9.60;99.90
26224;DHT22;14820;48.682;8.890;2023-05-19T03:15:37;9.60;99.90
26224;DHT22;14820;48.682;8.890;2023-05-19T03:18:03;9.60;99.90
26224;DHT22;14820;48.682;8.890;2023-05-19T03:20:28;9.70;99.90
26224;DHT22;14820;48.682;8.890;2023-05-19T03:22:55;9.70;99.90
26224;DHT22;14820;48.682;8.890;2023-05-19T03:25:21;9.70;99.90
26224;DHT22;14820;48.682;8.890;2023-05-19T03:27:46;9.70;99.90
26224;DHT22;14820;48.682;8.890;2023-05-19T03:30:13;9.60;99.90
26224;DHT22;14820;48.682;8.890;2023-05-19T03:32:38;9.60;99.90
26224;DHT22;14820;48.682;8.890;2023-05-19T03:35:04;9.60;99.90
26224;DHT22;14820;48.682;8.890;2023-05-19T03:37:30;9.60;99.90
26224;DHT22;14820;48.682;8.890;2023-05-19T03:39:59;9.60;99.90
26224;DHT22;14820;48.682;8.890;2023-05-19T03:42:26;9.70;99.90
26224;DHT22;14820;48.682;8.890;2023-05-19T03:44:51;9.70;99.90
26224;DHT22;14820;48.682;8.890;2023-05-19T03:47:17;9.70;99.90
26224;DHT22;14820;48.682;8.890;2023-05-19T03:49:43;9.70;99.90
26224;DHT22;14820;48.682;8.890;2023-05-19T03:52:08;9.50;99.90
26224;DHT22;14820;48.682;8.890;2023-05-19T03:54:35;9.50;99.90
26224;DHT22;14820;48.682;8.890;2023-05-19T03:57:03;9.60;99.90
26224;DHT22;14820;48.682;8.890;2023-05-19T03:59:29;9.50;99.90
26224;DHT22;14820;48.682;8.890;2023-05-19T04:01:55;9.50;99.90
26224;DHT22;14820;48.682;8.890;2023-05-19T04:04:22;9.50;99.90
26224;DHT22;14820;48.682;8.890;2023-05-19T04:06:47;9.50;99.90
26224;DHT22;14820;48.682;8.890;2023-05-19T04:09:14;9.40;99.90
26224;DHT22;14820;48.682;8.890;2023-05-19T04:11:41;9.50;99.90
26224;DHT22;14820;48.682;8.890;2023-05-19T04:14:07;9.50;99.90
26224;DHT22;14820;48.682;8.890;2023-05-19T04:16:33;9.60;99.90
26224;DHT22;14820;48.682;8.890;2023-05-19T04:18:59;9.60;99.90
26224;DHT22;14820;48.682;8.890;2023-05-19T04:21:25;9.60;99.90
26224;DHT22;14820;48.682;8.890;2023-05-19T04:23:51;9.60;99.90
26224;DHT22;14820;48.682;8.890;2023-05-19T04:26:17;9.60;99.90
26224;DHT22;14820;48.682;8.890;2023-05-19T04:28:46;9.60;99.90
26224;DHT22;14820;48.682;8.890;2023-05-19T04:31:16;9.60;99.90
26224;DHT22;14820;48.682;8.890;2023-05-19T04:33:41;9.60;99.90
26224;DHT22;14820;48.682;8.890;2023-05-19T04:36:07;9.60;99.90
26224;DHT22;14820;48.682;8.890;2023-05-19T04:38:38;9.60;99.90
26224;DHT22;14820;48.682;8.890;2023-05-19T04:41:06;9.60;99.90
26224;DHT22;14820;48.682;8.890;2023-05-19T04:43:36;9.60;99.90
26224;DHT22;14820;48.682;8.890;2023-05-19T04:46:06;9.60;99.90
26224;DHT22;14820;48.682;8.890;2023-05-19T04:48:32;9.60;99.90
26224;DHT22;14820;48.682;8.890;2023-05-19T04:50:58;9.70;99.90
26224;DHT22;14820;48.682;8.890;2023-05-19T04:53:27;9.70;99.90
26224;DHT22;14820;48.682;8.890;2023-05-19T04:55:53;9.70;99.90
26224;DHT22;14820;48.682;8.890;2023-05-19T04:58:19;9.70;99.90
26224;DHT22;14820;48.682;8.890;2023-05-19T05:00:45;9.70;99.90
26224;DHT22;14820;48.682;8.890;2023-05-19T05:03:10;9.70;99.90
26224;DHT22;14820;48.682;8.890;2023-05-19T05:05:38;9.70;99.90
26224;DHT22;14820;48.682;8.890;2023-05-19T05:08:04;9.80;99.90
26224;DHT22;14820;48.682;8.890;2023-05-19T05:10:30;9.70;99.90
26224;DHT22;14820;48.682;8.890;2023-05-19T05:12:56;9.70;99.90
26224;DHT22;14820;48.682;8.890;2023-05-19T05:15:22;9.70;99.90
26224;DHT22;14820;48.682;8.890;2023-05-19T05:17:49;9.80;99.90
26224;DHT22;14820;48.682;8.890;2023-05-19T05:20:15;9.80;99.90
26224;DHT22;14820;48.682;8.890;2023-05-19T05:22:41;9.80;99.90
26224;DHT22;14820;48.682;8.890;2023-05-19T05:25:07;9.80;99.90
26224;DHT22;14820;48.682;8.890;2023-05-19T05:27:33;9.80;99.90
26224;DHT22;14820;48.682;8.890;2023-05-19T05:29:59;9.80;99.90
26224;DHT22;14820;48.682;8.890;2023-05-19T05:32:24;9.90;99.90
26224;DHT22;14820;48.682;8.890;2023-05-19T05:34:50;9.90;99.90
26224;DHT22;14820;48.682;8.890;2023-05-19T05:37:16;9.90;99.90
26224;DHT22;14820;48.682;8.890;2023-05-19T05:39:41;9.90;99.90
26224;DHT22;14820;48.682;8.890;2023-05-19T05:42:07;9.90;99.90
26224;DHT22;14820;48.682;8.890;2023-05-19T05:44:36;9.90;99.90
26224;DHT22;14820;48.682;8.890;2023-05-19T05:47:02;10.00;99.90
26224;DHT22;14820;48.682;8.890;2023-05-19T05:49:28;10.00;99.90
26224;DHT22;14820;48.682;8.890;2023-05-19T05:51:54;10.00;99.90
26224;DHT22;14820;48.682;8.890;2023-05-19T05:54:21;10.10;99.90
26224;DHT22;14820;48.682;8.890;2023-05-19T05:56:47;10.10;99.90
26224;DHT22;14820;48.682;8.890;2023-05-19T05:59:13;10.20;99.90
26224;DHT22;14820;48.682;8.890;2023-05-19T06:01:40;10.20;99.90
26224;DHT22;14820;48.682;8.890;2023-05-19T06:04:06;10.20;99.90
26224;DHT22;14820;48.682;8.890;2023-05-19T06:06:32;10.30;99.90
26224;DHT22;14820;48.682;8.890;2023-05-19T06:08:58;10.30;99.90
26224;DHT22;14820;48.682;8.890;2023-05-19T06:11:23;10.30;99.90
26224;DHT22;14820;48.682;8.890;2023-05-19T06:13:49;10.40;99.90
26224;DHT22;14820;48.682;8.890;2023-05-19T06:16:15;10.40;99.90
26224;DHT22;14820;48.682;8.890;2023-05-19T06:18:41;10.50;99.90
26224;DHT22;14820;48.682;8.890;2023-05-19T06:21:06;10.60;99.90
26224;DHT22;14820;48.682;8.890;2023-05-19T06:23:35;10.60;99.90
26224;DHT22;14820;48.682;8.890;2023-05-19T06:26:00;10.70;99.90
26224;DHT22;14820;48.682;8.890;2023-05-19T06:28:26;10.80;99.90
26224;DHT22;14820;48.682;8.890;2023-05-19T06:30:52;11.00;99.90
26224;DHT22;14820;48.682;8.890;2023-05-19T06:33:17;11.00;99.90
26224;DHT22;14820;48.682;8.890;2023-05-19T06:35:43;11.00;99.90
26224;DHT22;14820;48.682;8.890;2023-05-19T06:38:08;11.10;99.90
26224;DHT22;14820;48.682;8.890;2023-05-19T06:40:35;11.20;99.90
26224;DHT22;14820;48.682;8.890;2023-05-19T06:43:01;11.20;99.90
26224;DHT22;14820;48.682;8.890;2023-05-19T06:45:27;11.20;99.90
26224;DHT22;14820;48.682;8.890;2023-05-19T06:47:53;11.30;99.90
26224;DHT22;14820;48.682;8.890;2023-05-19T06:50:19;11.40;99.90
26224;DHT22;14820;48.682;8.890;2023-05-19T06:52:44;11.50;99.90
26224;DHT22;14820;48.682;8.890;2023-05-19T06:55:11;11.50;99.90
26224;DHT22;14820;48.682;8.890;2023-05-19T07:02:31;11.80;99.90
26224;DHT22;14820;48.682;8.890;2023-05-19T07:04:56;11.80;99.90
26224;DHT22;14820;48.682;8.890;2023-05-19T07:07:22;11.80;99.90
26224;DHT22;14820;48.682;8.890;2023-05-19T07:09:48;11.90;99.90
26224;DHT22;14820;48.682;8.890;2023-05-19T07:12:13;11.90;99.90
26224;DHT22;14820;48.682;8.890;2023-05-19T07:14:39;12.00;99.90
26224;DHT22;14820;48.682;8.890;2023-05-19T07:17:05;12.10;99.90
26224;DHT22;14820;48.682;8.890;2023-05-19T07:19:31;12.20;99.90
26224;DHT22;14820;48.682;8.890;2023-05-19T07:21:56;12.20;99.90
26224;DHT22;14820;48.682;8.890;2023-05-19T07:24:23;12.30;99.90
26224;DHT22;14820;48.682;8.890;2023-05-19T07:26:49;12.30;99.90
26224;DHT22;14820;48.682;8.890;2023-05-19T07:29:15;12.30;99.90
26224;DHT22;14820;48.682;8.890;2023-05-19T07:31:40;12.30;99.90
26224;DHT22;14820;48.682;8.890;2023-05-19T07:34:06;12.30;99.90
26224;DHT22;14820;48.682;8.890;2023-05-19T07:36:32;12.30;99.90
26224;DHT22;14820;48.682;8.890;2023-05-19T07:38:58;12.30;99.90
26224;DHT22;14820;48.682;8.890;2023-05-19T07:41:24;12.40;99.90
26224;DHT22;14820;48.682;8.890;2023-05-19T07:43:50;12.40;99.90
26224;DHT22;14820;48.682;8.890;2023-05-19T07:46:16;12.50;99.90
26224;DHT22;14820;48.682;8.890;2023-05-19T07:48:42;12.50;99.90
26224;DHT22;14820;48.682;8.890;2023-05-19T07:51:07;12.50;99.90
26224;DHT22;14820;48.682;8.890;2023-05-19T07:53:35;12.50;99.90
26224;DHT22;14820;48.682;8.890;2023-05-19T07:56:02;12.50;99.90
26224;DHT22;14820;48.682;8.890;2023-05-19T07:58:28;12.50;99.90
26224;DHT22;14820;48.682;8.890;2023-05-19T08:00:59;12.50;99.90
26224;DHT22;14820;48.682;8.890;2023-05-19T08:03:25;12.50;99.90
26224;DHT22;14820;48.682;8.890;2023-05-19T08:05:51;12.50;99.90
26224;DHT22;14820;48.682;8.890;2023-05-19T08:08:17;12.50;99.90
26224;DHT22;14820;48.682;8.890;2023-05-19T08:10:44;12.50;99.90
26224;DHT22;14820;48.682;8.890;2023-05-19T08:13:10;12.50;99.90
26224;DHT22;14820;48.682;8.890;2023-05-19T08:15:36;12.60;99.90
26224;DHT22;14820;48.682;8.890;2023-05-19T08:18:02;12.60;99.90
26224;DHT22;14820;48.682;8.890;2023-05-19T08:20:29;12.60;99.90
26224;DHT22;14820;48.682;8.890;2023-05-19T08:22:55;12.60;99.90
26224;DHT22;14820;48.682;8.890;2023-05-19T08:25:21;12.70;99.90
26224;DHT22;14820;48.682;8.890;2023-05-19T08:27:46;12.70;99.90
26224;DHT22;14820;48.682;8.890;2023-05-19T08:30:12;12.70;99.90
26224;DHT22;14820;48.682;8.890;2023-05-19T08:32:38;12.60;99.90
26224;DHT22;14820;48.682;8.890;2023-05-19T08:35:04;12.60;99.90
26224;DHT22;14820;48.682;8.890;2023-05-19T08:37:30;12.60;99.90
26224;DHT22;14820;48.682;8.890;2023-05-19T08:39:55;12.70;99.90
26224;DHT22;14820;48.682;8.890;2023-05-19T08:42:21;12.70;99.90
26224;DHT22;14820;48.682;8.890;2023-05-19T08:44:47;12.80;99.90
26224;DHT22;14820;48.682;8.890;2023-05-19T08:47:13;12.90;99.90
26224;DHT22;14820;48.682;8.890;2023-05-19T08:49:44;13.00;99.90
26224;DHT22;14820;48.682;8.890;2023-05-19T08:55:04;13.10;99.90
26224;DHT22;14820;48.682;8.890;2023-05-19T08:57:32;13.20;99.90
26224;DHT22;14820;48.682;8.890;2023-05-19T08:59:59;13.20;99.90
26224;DHT22;14820;48.682;8.890;2023-05-19T09:02:25;13.20;99.90
26224;DHT22;14820;48.682;8.890;2023-05-19T09:04:52;13.30;99.90
26224;DHT22;14820;48.682;8.890;2023-05-19T09:07:18;13.20;99.90
26224;DHT22;14820;48.682;8.890;2023-05-19T09:09:45;13.20;99.90
26224;DHT22;14820;48.682;8.890;2023-05-19T09:12:12;13.30;99.90
26224;DHT22;14820;48.682;8.890;2023-05-19T09:14:38;13.30;99.90
26224;DHT22;14820;48.682;8.890;2023-05-19T09:17:04;13.20;99.90
26224;DHT22;14820;48.682;8.890;2023-05-19T09:19:30;13.20;99.90
26224;DHT22;14820;48.682;8.890;2023-05-19T09:22:00;13.20;99.90
26224;DHT22;14820;48.682;8.890;2023-05-19T09:24:27;13.20;99.90
26224;DHT22;14820;48.682;8.890;2023-05-19T09:26:56;13.20;99.90
26224;DHT22;14820;48.682;8.890;2023-05-19T09:29:22;13.30;99.90
26224;DHT22;14820;48.682;8.890;2023-05-19T09:31:54;13.30;99.90
26224;DHT22;14820;48.682;8.890;2023-05-19T09:34:24;13.30;99.90
26224;DHT22;14820;48.682;8.890;2023-05-19T09:36:52;13.30;99.90
26224;DHT22;14820;48.682;8.890;2023-05-19T09:39:19;13.30;99.90
26224;DHT22;14820;48.682;8.890;2023-05-19T09:41:45;13.30;99.90
26224;DHT22;14820;48.682;8.890;2023-05-19T09:44:12;13.30;99.90
26224;DHT22;14820;48.682;8.890;2023-05-19T09:46:47;13.30;99.90
26224;DHT22;14820;48.682;8.890;2023-05-19T09:49:12;13.30;99.90
26224;DHT22;14820;48.682;8.890;2023-05-19T09:51:40;13.30;99.90
26224;DHT22;14820;48.682;8.890;2023-05-19T09:54:06;13.30;99.90
26224;DHT22;14820;48.682;8.890;2023-05-19T09:56:35;13.20;99.90
26224;DHT22;14820;48.682;8.890;2023-05-19T09:59:04;13.30;99.90
26224;DHT22;14820;48.682;8.890;2023-05-19T10:01:31;13.30;99.90
26224;DHT22;14820;48.682;8.890;2023-05-19T10:03:59;13.30;99.90
26224;DHT22;14820;48.682;8.890;2023-05-19T10:06:25;13.30;99.90
26224;DHT22;14820;48.682;8.890;2023-05-19T10:08:51;13.30;99.90
26224;DHT22;14820;48.682;8.890;2023-05-19T10:11:17;13.30;99.90
26224;DHT22;14820;48.682;8.890;2023-05-19T10:13:44;13.30;99.90
26224;DHT22;14820;48.682;8.890;2023-05-19T10:16:11;13.20;99.90
26224;DHT22;14820;48.682;8.890;2023-05-19T10:18:41;13.20;99.90
26224;DHT22;14820;48.682;8.890;2023-05-19T10:21:07;13.20;99.90
26224;DHT22;14820;48.682;8.890;2023-05-19T10:23:34;13.20;99.90
26224;DHT22;14820;48.682;8.890;2023-05-19T10:26:00;13.20;99.90
26224;DHT22;14820;48.682;8.890;2023-05-19T10:28:35;13.20;99.90
26224;DHT22;14820;48.682;8.890;2023-05-19T10:31:03;13.20;99.90
26224;DHT22;14820;48.682;8.890;2023-05-19T10:39:03;13.20;99.90
26224;DHT22;14820;48.682;8.890;2023-05-19T10:46:49;13.30;99.90
26224;DHT22;14820;48.682;8.890;2023-05-19T10:49:21;13.20;99.90
26224;DHT22;14820;48.682;8.890;2023-05-19T10:51:47;13.20;99.90
26224;DHT22;14820;48.682;8.890;2023-05-19T10:54:13;13.20;99.90
26224;DHT22;14820;48.682;8.890;2023-05-19T10:56:43;13.20;99.90
26224;DHT22;14820;48.682;8.890;2023-05-19T10:59:31;13.20;99.90
26224;DHT22;14820;48.682;8.890;2023-05-19T11:02:04;13.20;99.90
26224;DHT22;14820;48.682;8.890;2023-05-19T11:04:46;13.20;99.90
26224;DHT22;14820;48.682;8.890;2023-05-19T11:07:19;13.20;99.90
26224;DHT22;14820;48.682;8.890;2023-05-19T11:09:52;13.20;99.90
26224;DHT22;14820;48.682;8.890;2023-05-19T11:12:22;13.20;99.90
26224;DHT22;14820;48.682;8.890;2023-05-19T11:14:51;13.20;99.90
26224;DHT22;14820;48.682;8.890;2023-05-19T11:17:18;13.20;99.90
26224;DHT22;14820;48.682;8.890;2023-05-19T11:19:54;13.20;99.90
26224;DHT22;14820;48.682;8.890;2023-05-19T11:22:27;13.10;99.90
26224;DHT22;14820;48.682;8.890;2023-05-19T11:24:56;13.10;99.90
26224;DHT22;14820;48.682;8.890;2023-05-19T11:27:29;13.00;99.90
26224;DHT22;14820;48.682;8.890;2023-05-19T11:30:00;13.10;99.90
26224;DHT22;14820;48.682;8.890;2023-05-19T11:32:30;13.10;99.90
26224;DHT22;14820;48.682;8.890;2023-05-19T11:34:58;13.10;99.90
26224;DHT22;14820;48.682;8.890;2023-05-19T11:37:23;13.10;99.90
26224;DHT22;14820;48.682;8.890;2023-05-19T11:39:50;13.10;99.90
26224;DHT22;14820;48.682;8.890;2023-05-19T11:42:17;13.10;99.90
26224;DHT22;14820;48.682;8.890;2023-05-19T11:44:43;13.10;99.90
26224;DHT22;14820;48.682;8.890;2023-05-19T11:47:15;13.10;99.90
26224;DHT22;14820;48.682;8.890;2023-05-19T11:49:47;13.10;99.90
26224;DHT22;14820;48.682;8.890;2023-05-19T11:52:13;13.10;99.90
26224;DHT22;14820;48.682;8.890;2023-05-19T11:54:39;13.10;99.90
26224;DHT22;14820;48.682;8.890;2023-05-19T11:57:08;13.20;99.90
26224;DHT22;14820;48.682;8.890;2023-05-19T11:59:36;13.20;99.90
26224;DHT22;14820;48.682;8.890;2023-05-19T12:02:15;13.20;99.90
26224;DHT22;14820;48.682;8.890;2023-05-19T12:04:41;13.20;99.90
26224;DHT22;14820;48.682;8.890;2023-05-19T12:07:07;13.20;99.90
26224;DHT22;14820;48.682;8.890;2023-05-19T12:09:35;13.20;99.90
26224;DHT22;14820;48.682;8.890;2023-05-19T12:12:02;13.20;99.90
26224;DHT22;14820;48.682;8.890;2023-05-19T12:14:29;13.30;99.90
26224;DHT22;14820;48.682;8.890;2023-05-19T12:16:55;13.30;99.90
26224;DHT22;14820;48.682;8.890;2023-05-19T12:19:24;13.30;99.90
26224;DHT22;14820;48.682;8.890;2023-05-19T12:21:51;13.30;99.90
26224;DHT22;14820;48.682;8.890;2023-05-19T12:24:18;13.20;99.90
26224;DHT22;14820;48.682;8.890;2023-05-19T12:26:44;13.30;99.90
26224;DHT22;14820;48.682;8.890;2023-05-19T12:29:12;13.30;99.90
26224;DHT22;14820;48.682;8.890;2023-05-19T12:31:37;13.20;99.90
26224;DHT22;14820;48.682;8.890;2023-05-19T12:34:04;13.20;99.90
26224;DHT22;14820;48.682;8.890;2023-05-19T12:36:31;13.30;99.90
26224;DHT22;14820;48.682;8.890;2023-05-19T12:38:56;13.20;99.90
26224;DHT22;14820;48.682;8.890;2023-05-19T12:41:24;13.30;99.90
26224;DHT22;14820;48.682;8.890;2023-05-19T12:43:52;13.30;99.90
26224;DHT22;14820;48.682;8.890;2023-05-19T12:46:18;13.20;99.90
26224;DHT22;14820;48.682;8.890;2023-05-19T12:48:44;13.30;99.90
26224;DHT22;14820;48.682;8.890;2023-05-19T12:51:18;13.20;99.90
26224;DHT22;14820;48.682;8.890;2023-05-19T12:53:44;13.30;99.90
26224;DHT22;14820;48.682;8.890;2023-05-19T12:56:14;13.20;99.90
26224;DHT22;14820;48.682;8.890;2023-05-19T12:58:41;13.20;99.90
26224;DHT22;14820;48.682;8.890;2023-05-19T13:01:14;13.20;99.90
26224;DHT22;14820;48.682;8.890;2023-05-19T13:03:40;13.20;99.90
26224;DHT22;14820;48.682;8.890;2023-05-19T13:06:07;13.20;99.90
26224;DHT22;14820;48.682;8.890;2023-05-19T13:08:33;13.20;99.90
26224;DHT22;14820;48.682;8.890;2023-05-19T13:10:59;13.20;99.90
26224;DHT22;14820;48.682;8.890;2023-05-19T13:13:25;13.20;99.90
26224;DHT22;14820;48.682;8.890;2023-05-19T13:15:50;13.20;99.90
26224;DHT22;14820;48.682;8.890;2023-05-19T13:18:17;13.20;99.90
26224;DHT22;14820;48.682;8.890;2023-05-19T13:20:43;13.20;99.90
26224;DHT22;14820;48.682;8.890;2023-05-19T13:23:12;13.20;99.90
26224;DHT22;14820;48.682;8.890;2023-05-19T13:25:39;13.20;99.90
26224;DHT22;14820;48.682;8.890;2023-05-19T13:28:05;13.20;99.90
26224;DHT22;14820;48.682;8.890;2023-05-19T13:30:31;13.30;99.90
26224;DHT22;14820;48.682;8.890;2023-05-19T13:32:57;13.30;99.90
26224;DHT22;14820;48.682;8.890;2023-05-19T13:35:23;13.30;99.90
26224;DHT22;14820;48.682;8.890;2023-05-19T13:37:49;13.30;99.90
26224;DHT22;14820;48.682;8.890;2023-05-19T13:40:15;13.30;99.90
26224;DHT22;14820;48.682;8.890;2023-05-19T13:42:41;13.30;99.90
26224;DHT22;14820;48.682;8.890;2023-05-19T13:45:08;13.30;99.90
26224;DHT22;14820;48.682;8.890;2023-05-19T13:47:33;13.30;99.90
26224;DHT22;14820;48.682;8.890;2023-05-19T13:49:59;13.30;99.90
26224;DHT22;14820;48.682;8.890;2023-05-19T13:52:25;13.30;99.90
26224;DHT22;14820;48.682;8.890;2023-05-19T13:54:51;13.30;99.90
26224;DHT22;14820;48.682;8.890;2023-05-19T13:57:19;13.40;99.90
26224;DHT22;14820;48.682;8.890;2023-05-19T13:59:44;13.30;99.90
26224;DHT22;14820;48.682;8.890;2023-05-19T14:02:10;13.30;99.90
26224;DHT22;14820;48.682;8.890;2023-05-19T14:04:36;13.40;99.90
26224;DHT22;14820;48.682;8.890;2023-05-19T14:07:05;13.30;99.90
26224;DHT22;14820;48.682;8.890;2023-05-19T14:09:31;13.40;99.90
26224;DHT22;14820;48.682;8.890;2023-05-19T14:11:57;13.30;99.90
26224;DHT22;14820;48.682;8.890;2023-05-19T14:14:23;13.40;99.90
26224;DHT22;14820;48.682;8.890;2023-05-19T14:16:49;13.40;99.90
26224;DHT22;14820;48.682;8.890;2023-05-19T14:19:15;13.30;99.90
26224;DHT22;14820;48.682;8.890;2023-05-19T14:21:41;13.30;99.90
26224;DHT22;14820;48.682;8.890;2023-05-19T14:24:06;13.40;99.90
26224;DHT22;14820;48.682;8.890;2023-05-19T14:26:32;13.40;99.90
26224;DHT22;14820;48.682;8.890;2023-05-19T14:28:58;13.40;99.90
26224;DHT22;14820;48.682;8.890;2023-05-19T14:31:23;13.40;99.90
26224;DHT22;14820;48.682;8.890;2023-05-19T14:33:50;13.40;99.90
26224;DHT22;14820;48.682;8.890;2023-05-19T14:36:16;13.40;99.90
26224;DHT22;14820;48.682;8.890;2023-05-19T14:38:42;13.40;99.90
26224;DHT22;14820;48.682;8.890;2023-05-19T14:41:07;13.50;99.90
26224;DHT22;14820;48.682;8.890;2023-05-19T14:43:33;13.50;99.90
26224;DHT22;14820;48.682;8.890;2023-05-19T14:45:59;13.50;99.90
26224;DHT22;14820;48.682;8.890;2023-05-19T14:48:24;13.40;99.90
26224;DHT22;14820;48.682;8.890;2023-05-19T14:50:50;13.50;99.90
26224;DHT22;14820;48.682;8.890;2023-05-19T14:53:16;13.40;99.90
26224;DHT22;14820;48.682;8.890;2023-05-19T14:55:42;13.40;99.90
26224;DHT22;14820;48.682;8.890;2023-05-19T14:58:08;13.40;99.90
26224;DHT22;14820;48.682;8.890;2023-05-19T15:00:34;13.40;99.90
26224;DHT22;14820;48.682;8.890;2023-05-19T15:02:59;13.40;99.90
26224;DHT22;14820;48.682;8.890;2023-05-19T15:05:25;13.40;99.90
26224;DHT22;14820;48.682;8.890;2023-05-19T15:07:51;13.40;99.90
26224;DHT22;14820;48.682;8.890;2023-05-19T15:10:17;13.40;99.90
26224;DHT22;14820;48.682;8.890;2023-05-19T15:12:46;13.50;99.90
26224;DHT22;14820;48.682;8.890;2023-05-19T15:15:12;13.40;99.90
26224;DHT22;14820;48.682;8.890;2023-05-19T15:17:39;13.40;99.90
26224;DHT22;14820;48.682;8.890;2023-05-19T15:20:06;13.40;99.90
26224;DHT22;14820;48.682;8.890;2023-05-19T15:22:31;13.40;99.90
26224;DHT22;14820;48.682;8.890;2023-05-19T15:24:57;13.40;99.90
26224;DHT22;14820;48.682;8.890;2023-05-19T15:27:23;13.40;99.90
26224;DHT22;14820;48.682;8.890;2023-05-19T15:29:49;13.40;99.90
26224;DHT22;14820;48.682;8.890;2023-05-19T15:32:14;13.40;99.90
26224;DHT22;14820;48.682;8.890;2023-05-19T15:34:40;13.40;99.90
26224;DHT22;14820;48.682;8.890;2023-05-19T15:37:06;13.40;99.90
26224;DHT22;14820;48.682;8.890;2023-05-19T15:39:31;13.40;99.90
26224;DHT22;14820;48.682;8.890;2023-05-19T15:41:58;13.40;99.90
26224;DHT22;14820;48.682;8.890;2023-05-19T15:44:23;13.40;99.90
26224;DHT22;14820;48.682;8.890;2023-05-19T15:46:49;13.40;99.90
26224;DHT22;14820;48.682;8.890;2023-05-19T15:49:15;13.50;99.90
26224;DHT22;14820;48.682;8.890;2023-05-19T15:51:42;13.50;99.90
26224;DHT22;14820;48.682;8.890;2023-05-19T15:54:08;13.40;99.90
26224;DHT22;14820;48.682;8.890;2023-05-19T15:56:33;13.50;99.90
26224;DHT22;14820;48.682;8.890;2023-05-19T15:58:59;13.50;99.90
26224;DHT22;14820;48.682;8.890;2023-05-19T16:01:25;13.50;99.90
26224;DHT22;14820;48.682;8.890;2023-05-19T16:03:50;13.50;99.90
26224;DHT22;14820;48.682;8.890;2023-05-19T16:06:16;13.50;99.90
26224;DHT22;14820;48.682;8.890;2023-05-19T16:08:42;13.50;99.90